createdAt,value
2018-08-03T00:01:27.222Z,55.50
2018-08-03T00:03:55.807Z,55.50
2018-08-03T00:06:24.455Z,55.60
2018-08-03T00:08:52.994Z,55.80
2018-08-03T00:11:21.623Z,55.80
2018-08-03T00:13:50.162Z,55.90
2018-08-03T00:16:18.775Z,55.90
2018-08-03T00:18:47.317Z,56.00
2018-08-03T00:21:15.908Z,56.00
2018-08-03T00:23:44.454Z,56.00
2018-08-03T00:26:13.072Z,56.10
2018-08-03T00:28:41.615Z,55.90
2018-08-03T00:31:10.402Z,55.90
2018-08-03T00:33:38.937Z,56.00
2018-08-03T00:36:07.572Z,56.00
2018-08-03T00:38:36.122Z,56.00
2018-08-03T00:41:04.764Z,56.10
2018-08-03T00:43:33.457Z,56.20
2018-08-03T00:46:02.011Z,56.20
2018-08-03T00:48:30.617Z,56.20
2018-08-03T00:50:59.256Z,56.30
2018-08-03T00:53:27.792Z,56.30
2018-08-03T00:55:56.339Z,56.40
2018-08-03T00:58:24.911Z,56.50
2018-08-03T01:00:53.458Z,56.50
2018-08-03T01:03:21.975Z,56.50
2018-08-03T01:05:50.466Z,56.60
2018-08-03T01:10:47.256Z,57.00
2018-08-03T01:13:15.800Z,56.70
2018-08-03T01:15:44.526Z,56.70
2018-08-03T01:18:13.070Z,56.80
2018-08-03T01:20:41.565Z,56.90
2018-08-03T01:25:38.249Z,56.90
2018-08-03T01:28:06.814Z,56.90
2018-08-03T01:30:35.306Z,56.90
2018-08-03T01:33:03.888Z,57.00
2018-08-03T01:35:32.395Z,57.00
2018-08-03T01:38:00.909Z,57.10
2018-08-03T01:40:29.405Z,57.10
2018-08-03T01:42:57.906Z,57.20
2018-08-03T01:45:26.432Z,57.20
2018-08-03T01:47:54.941Z,57.90
2018-08-03T01:50:23.439Z,57.30
2018-08-03T01:52:52.095Z,57.40
2018-08-03T01:55:20.870Z,57.40
2018-08-03T01:57:49.375Z,57.40
2018-08-03T02:00:18.025Z,57.50
2018-08-03T02:02:46.542Z,57.50
2018-08-03T02:05:15.033Z,57.60
2018-08-03T02:07:43.582Z,57.60
2018-08-03T02:10:12.091Z,57.70
2018-08-03T02:12:40.591Z,57.60
2018-08-03T02:15:09.228Z,57.70
2018-08-03T02:17:37.757Z,57.80
2018-08-03T02:20:07.135Z,57.80
2018-08-03T02:22:35.639Z,57.80
2018-08-03T02:25:04.173Z,57.80
2018-08-03T02:27:32.654Z,57.80
2018-08-03T02:30:01.281Z,57.80
2018-08-03T02:32:29.848Z,57.80
2018-08-03T02:34:58.398Z,57.90
2018-08-03T02:37:27.013Z,58.00
2018-08-03T02:39:55.647Z,58.00
2018-08-03T02:42:24.201Z,58.00
2018-08-03T02:44:52.725Z,58.10
2018-08-03T02:47:21.239Z,58.10
2018-08-03T02:49:49.757Z,58.10
2018-08-03T02:52:18.266Z,58.10
2018-08-03T02:57:14.971Z,57.90
2018-08-03T02:59:43.499Z,58.20
2018-08-03T03:02:12.002Z,58.30
2018-08-03T03:04:40.531Z,58.30
2018-08-03T03:07:09.032Z,58.20
2018-08-03T03:09:37.557Z,58.30
2018-08-03T03:12:06.093Z,58.30
2018-08-03T03:14:34.635Z,58.40
2018-08-03T03:17:03.204Z,58.30
2018-08-03T03:19:31.798Z,58.40
2018-08-03T03:22:00.293Z,58.50
2018-08-03T03:24:28.830Z,58.50
2018-08-03T03:26:57.332Z,58.50
2018-08-03T03:29:25.881Z,58.60
2018-08-03T03:31:54.387Z,58.70
2018-08-03T03:34:23.473Z,58.70
2018-08-03T03:36:52.329Z,58.30
2018-08-03T03:39:20.853Z,58.90
2018-08-03T03:41:49.392Z,58.80
2018-08-03T03:44:17.957Z,58.90
2018-08-03T03:46:46.573Z,58.90
2018-08-03T03:49:15.095Z,59.00
2018-08-03T03:51:43.729Z,59.00
2018-08-03T03:54:12.262Z,59.10
2018-08-03T03:56:40.802Z,59.10
2018-08-03T03:59:09.353Z,59.10
2018-08-03T04:01:38.010Z,59.10
2018-08-03T04:04:07.069Z,59.10
2018-08-03T04:06:35.661Z,59.20
2018-08-03T04:09:07.119Z,59.20
2018-08-03T04:11:35.652Z,59.30
2018-08-03T04:14:04.154Z,59.80
2018-08-03T04:16:32.706Z,59.20
2018-08-03T04:19:01.226Z,59.30
2018-08-03T04:21:29.761Z,59.30
2018-08-03T04:23:58.264Z,59.40
2018-08-03T04:26:26.877Z,60.00
2018-08-03T04:28:55.577Z,59.40
2018-08-03T04:31:24.132Z,59.40
2018-08-03T04:33:52.648Z,59.40
2018-08-03T04:36:21.229Z,59.40
2018-08-03T04:38:50.018Z,59.50
2018-08-03T04:41:18.605Z,59.50
2018-08-03T04:43:47.119Z,59.60
2018-08-03T04:46:16.506Z,59.60
2018-08-03T04:48:45.010Z,59.70
2018-08-03T04:51:13.569Z,59.80
2018-08-03T04:53:42.127Z,59.80
2018-08-03T04:56:10.865Z,59.90
2018-08-03T04:58:39.379Z,59.90
2018-08-03T05:01:07.943Z,60.00
2018-08-03T05:03:36.468Z,60.00
2018-08-03T05:06:05.083Z,60.10
2018-08-03T05:08:33.618Z,60.20
2018-08-03T05:11:02.205Z,60.30
2018-08-03T05:13:32.265Z,60.30
2018-08-03T05:18:29.491Z,60.50
2018-08-03T05:20:58.039Z,60.60
2018-08-03T05:25:54.966Z,61.40
2018-08-03T05:28:23.468Z,60.90
2018-08-03T05:30:52.026Z,60.80
2018-08-03T05:33:20.521Z,60.90
2018-08-03T05:35:49.051Z,61.00
2018-08-03T05:38:17.586Z,61.00
2018-08-03T05:40:46.283Z,60.90
2018-08-03T05:43:14.797Z,61.00
2018-08-03T05:45:43.312Z,61.10
2018-08-03T05:48:11.844Z,61.20
2018-08-03T05:50:40.486Z,61.30
2018-08-03T05:53:09.059Z,61.30
2018-08-03T05:55:37.585Z,61.20
2018-08-03T05:58:06.622Z,61.00
2018-08-03T06:00:35.105Z,60.90
2018-08-03T06:03:03.683Z,60.90
2018-08-03T06:05:32.405Z,60.90
2018-08-03T06:08:00.957Z,61.00
2018-08-03T06:10:29.474Z,61.00
2018-08-03T06:12:58.138Z,61.10
2018-08-03T06:15:26.738Z,61.10
2018-08-03T06:17:55.310Z,61.10
2018-08-03T06:20:23.828Z,61.30
2018-08-03T06:22:52.369Z,61.40
2018-08-03T06:25:20.910Z,61.40
2018-08-03T06:27:49.439Z,61.50
2018-08-03T06:30:18.353Z,61.40
2018-08-03T06:32:46.907Z,61.40
2018-08-03T06:35:16.337Z,61.40
2018-08-03T06:37:45.065Z,61.60
2018-08-03T06:42:41.830Z,61.70
2018-08-03T06:45:10.365Z,61.70
2018-08-03T06:47:39.080Z,61.70
2018-08-03T06:50:07.673Z,61.80
2018-08-03T06:52:36.235Z,61.80
2018-08-03T06:55:04.829Z,61.90
2018-08-03T06:57:33.399Z,62.00
2018-08-03T07:00:01.947Z,61.90
2018-08-03T07:02:30.515Z,62.10
2018-08-03T07:04:59.023Z,62.10
2018-08-03T07:07:27.570Z,62.20
2018-08-03T07:09:56.074Z,62.20
2018-08-03T07:14:52.898Z,62.40
2018-08-03T07:17:21.506Z,62.40
2018-08-03T07:19:50.044Z,63.90
2018-08-03T07:22:18.603Z,64.00
2018-08-03T07:24:47.153Z,64.00
2018-08-03T07:27:15.753Z,63.90
2018-08-03T07:29:44.329Z,64.10
2018-08-03T07:32:12.875Z,64.00
2018-08-03T07:34:41.403Z,63.90
2018-08-03T07:37:09.941Z,63.80
2018-08-03T07:39:38.486Z,63.80
2018-08-03T07:42:07.043Z,63.70
2018-08-03T07:47:04.134Z,64.50
2018-08-03T07:49:32.724Z,63.70
2018-08-03T07:52:01.242Z,63.60
2018-08-03T07:54:29.803Z,63.60
2018-08-03T07:56:58.307Z,63.70
2018-08-03T07:59:26.861Z,63.60
2018-08-03T08:01:55.374Z,63.70
2018-08-03T08:04:23.910Z,63.60
2018-08-03T08:06:52.527Z,63.60
2018-08-03T08:09:21.083Z,63.50
2018-08-03T08:11:49.606Z,63.50
2018-08-03T08:14:18.138Z,63.50
2018-08-03T08:16:46.709Z,65.50
2018-08-03T08:21:43.465Z,58.50
2018-08-03T08:24:12.031Z,56.70
2018-08-03T08:26:40.582Z,55.90
2018-08-03T08:29:09.134Z,55.30
2018-08-03T08:31:37.713Z,54.90
2018-08-03T08:34:06.368Z,54.80
2018-08-03T08:36:35.542Z,54.80
2018-08-03T08:39:06.723Z,54.80
2018-08-03T08:41:35.421Z,54.60
2018-08-03T08:44:05.305Z,54.60
2018-08-03T08:46:33.822Z,54.50
2018-08-03T08:49:02.824Z,54.60
2018-08-03T08:51:31.447Z,54.60
2018-08-03T08:53:59.993Z,54.70
2018-08-03T08:58:56.894Z,54.80
2018-08-03T09:01:25.389Z,55.00
2018-08-03T09:03:53.961Z,54.90
2018-08-03T09:06:22.481Z,54.80
2018-08-03T09:08:51.025Z,54.90
2018-08-03T09:11:19.540Z,55.00
2018-08-03T09:13:48.086Z,54.90
2018-08-03T09:16:16.716Z,55.10
2018-08-03T09:18:45.276Z,55.30
2018-08-03T09:21:14.370Z,55.50
2018-08-03T09:23:42.910Z,55.40
2018-08-03T09:28:39.743Z,55.30
2018-08-03T09:31:08.416Z,55.20
2018-08-03T09:33:36.876Z,55.00
2018-08-03T09:36:05.409Z,56.80
2018-08-03T09:38:33.929Z,58.80
2018-08-03T09:41:02.505Z,60.00
2018-08-03T09:43:31.095Z,60.80
2018-08-03T09:45:59.648Z,61.10
2018-08-03T09:48:28.178Z,61.40
2018-08-03T09:50:56.722Z,61.30
2018-08-03T09:53:25.243Z,61.40
2018-08-03T09:55:53.781Z,61.20
2018-08-03T09:58:22.295Z,61.10
2018-08-03T10:01:01.007Z,60.90
2018-08-03T10:03:29.806Z,60.50
2018-08-03T10:05:58.321Z,60.30
2018-08-03T10:08:26.883Z,60.20
2018-08-03T10:10:55.429Z,60.00
2018-08-03T10:13:23.943Z,59.90
2018-08-03T10:15:52.577Z,59.60
2018-08-03T10:18:21.118Z,59.40
2018-08-03T10:20:49.684Z,59.10
2018-08-03T10:23:18.212Z,58.90
2018-08-03T10:25:46.734Z,58.60
2018-08-03T10:28:15.224Z,56.80
2018-08-03T10:30:43.764Z,52.90
2018-08-03T10:33:12.510Z,50.40
2018-08-03T10:35:41.066Z,49.00
2018-08-03T10:38:09.745Z,48.60
2018-08-03T10:43:07.431Z,47.80
2018-08-03T10:45:36.137Z,47.60
2018-08-03T10:48:04.775Z,47.10
2018-08-03T10:50:33.323Z,46.80
2018-08-03T10:53:01.912Z,46.90
2018-08-03T10:55:30.519Z,47.20
2018-08-03T10:57:59.089Z,47.20
2018-08-03T11:00:29.867Z,47.40
2018-08-03T11:02:59.017Z,47.00
2018-08-03T11:05:28.263Z,47.60
2018-08-03T11:07:57.003Z,47.00
2018-08-03T11:10:25.582Z,47.10
2018-08-03T11:12:54.360Z,47.00
2018-08-03T11:15:23.027Z,47.00
2018-08-03T11:17:51.776Z,47.10
2018-08-03T11:20:20.354Z,47.20
2018-08-03T11:22:49.156Z,47.20
2018-08-03T11:25:17.705Z,47.00
2018-08-03T11:27:46.359Z,46.80
2018-08-03T11:30:15.084Z,46.70
2018-08-03T11:32:43.874Z,46.60
2018-08-03T11:35:12.625Z,46.70
2018-08-03T11:37:41.342Z,46.70
2018-08-03T11:40:10.002Z,46.40
2018-08-03T11:42:38.620Z,46.00
2018-08-03T11:45:09.033Z,46.50
2018-08-03T11:47:37.632Z,46.20
2018-08-03T11:50:07.450Z,46.10
2018-08-03T11:52:36.155Z,45.90
2018-08-03T11:55:04.769Z,45.70
2018-08-03T12:00:01.768Z,45.80
2018-08-03T12:02:30.316Z,45.50
2018-08-03T12:04:58.890Z,45.50
2018-08-03T12:07:27.417Z,45.70
2018-08-03T12:09:56.018Z,45.50
2018-08-03T12:12:24.578Z,45.50
2018-08-03T12:17:21.333Z,45.30
2018-08-03T12:22:19.082Z,45.30
2018-08-03T12:24:47.605Z,45.10
2018-08-03T12:27:16.150Z,45.00
2018-08-03T12:29:45.647Z,45.20
2018-08-03T12:32:14.188Z,45.10
2018-08-03T12:34:42.773Z,44.70
2018-08-03T12:37:11.392Z,44.70
2018-08-03T12:42:08.114Z,44.70
2018-08-03T12:44:36.997Z,44.70
2018-08-03T12:47:05.553Z,44.80
2018-08-03T12:49:34.109Z,44.80
2018-08-03T12:52:02.660Z,45.00
2018-08-03T12:54:31.164Z,45.50
2018-08-03T12:56:59.745Z,45.20
2018-08-03T12:59:28.421Z,44.70
2018-08-03T13:01:56.962Z,44.90
2018-08-03T13:04:25.499Z,44.80
2018-08-03T13:06:54.049Z,44.50
2018-08-03T13:09:22.597Z,44.60
2018-08-03T13:11:51.132Z,44.50
2018-08-03T13:14:19.723Z,44.60
2018-08-03T13:16:48.278Z,44.60
2018-08-03T13:21:45.078Z,44.60
2018-08-03T13:24:13.601Z,44.50
2018-08-03T13:26:42.134Z,44.70
2018-08-03T13:29:10.651Z,45.00
2018-08-03T13:31:39.221Z,45.00
2018-08-03T13:34:07.889Z,45.00
2018-08-03T13:36:36.453Z,45.10
2018-08-03T13:39:08.198Z,45.30
2018-08-03T13:41:37.333Z,45.40
2018-08-03T13:44:05.927Z,45.50
2018-08-03T13:46:34.435Z,45.60
2018-08-03T13:49:02.981Z,45.50
2018-08-03T13:51:31.505Z,45.60
2018-08-03T13:54:00.037Z,45.50
2018-08-03T13:56:28.566Z,45.40
2018-08-03T13:58:57.117Z,45.50
2018-08-03T14:01:36.757Z,45.90
2018-08-03T14:04:05.368Z,45.40
2018-08-03T14:06:33.855Z,45.40
2018-08-03T14:09:02.458Z,45.30
2018-08-03T14:11:30.969Z,45.40
2018-08-03T14:13:59.560Z,45.40
2018-08-03T14:16:28.125Z,45.20
2018-08-03T14:18:56.662Z,45.30
2018-08-03T14:21:25.192Z,45.30
2018-08-03T14:23:53.739Z,45.30
2018-08-03T14:26:22.282Z,45.40
2018-08-03T14:28:51.110Z,45.30
2018-08-03T14:31:19.665Z,45.20
2018-08-03T14:33:48.270Z,45.30
2018-08-03T14:36:16.808Z,45.20
2018-08-03T14:38:45.396Z,45.30
2018-08-03T14:41:13.953Z,45.30
2018-08-03T14:43:42.494Z,45.20
2018-08-03T14:46:11.032Z,45.00
2018-08-03T14:51:07.905Z,45.10
2018-08-03T14:56:04.699Z,45.00
2018-08-03T14:58:33.257Z,45.00
2018-08-03T15:01:02.127Z,45.10
2018-08-03T15:03:30.679Z,45.00
2018-08-03T15:05:59.199Z,45.00
2018-08-03T15:10:55.952Z,45.00
2018-08-03T15:13:24.485Z,44.90
2018-08-03T15:15:53.054Z,45.00
2018-08-03T15:18:21.962Z,45.00
2018-08-03T15:20:50.526Z,45.00
2018-08-03T15:23:19.090Z,45.00
2018-08-03T15:28:15.813Z,45.10
2018-08-03T15:30:44.345Z,45.00
2018-08-03T15:33:12.882Z,45.00
2018-08-03T15:35:41.589Z,45.10
2018-08-03T15:38:10.106Z,43.60
2018-08-03T15:40:38.658Z,44.70
2018-08-03T15:43:07.170Z,44.00
2018-08-03T15:45:35.779Z,43.70
2018-08-03T15:48:04.325Z,43.50
2018-08-03T15:50:32.902Z,43.30
2018-08-03T15:53:01.414Z,43.40
2018-08-03T15:55:30.409Z,43.50
2018-08-03T15:57:58.957Z,43.60
2018-08-03T16:02:55.771Z,43.60
2018-08-03T16:05:24.306Z,43.50
2018-08-03T16:07:52.930Z,43.40
2018-08-03T16:10:21.482Z,43.70
2018-08-03T16:12:50.165Z,41.60
2018-08-03T16:15:18.674Z,42.10
2018-08-03T16:17:47.190Z,42.10
2018-08-03T16:20:15.714Z,42.10
2018-08-03T16:25:12.694Z,42.40
2018-08-03T16:27:41.259Z,42.40
2018-08-03T16:30:10.539Z,42.50
2018-08-03T16:32:39.203Z,42.60
2018-08-03T16:35:08.919Z,42.60
2018-08-03T16:37:37.425Z,42.60
2018-08-03T16:40:07.607Z,42.70
2018-08-03T16:42:36.144Z,42.80
2018-08-03T16:45:05.092Z,42.90
2018-08-03T16:47:33.651Z,42.80
2018-08-03T16:50:02.189Z,42.70
2018-08-03T16:52:30.944Z,42.80
2018-08-03T16:54:59.547Z,42.80
2018-08-03T16:57:28.037Z,42.70
2018-08-03T16:59:56.563Z,42.90
2018-08-03T17:02:25.074Z,42.90
2018-08-03T17:04:53.989Z,43.60
2018-08-03T17:07:22.501Z,43.00
2018-08-03T17:09:51.052Z,43.20
2018-08-03T17:12:19.575Z,43.10
2018-08-03T17:17:16.338Z,43.30
2018-08-03T17:19:44.867Z,43.40
2018-08-03T17:22:13.414Z,43.50
2018-08-03T17:24:41.929Z,43.50
2018-08-03T17:27:10.483Z,43.50
2018-08-03T17:29:39.001Z,43.60
2018-08-03T17:32:07.559Z,43.80
2018-08-03T17:34:36.076Z,43.80
2018-08-03T17:37:04.677Z,43.80
2018-08-03T17:39:33.201Z,43.90
2018-08-03T17:42:01.761Z,43.80
2018-08-03T17:44:30.285Z,43.90
2018-08-03T17:46:58.854Z,44.50
2018-08-03T17:49:27.365Z,44.00
2018-08-03T17:51:56.575Z,44.00
2018-08-03T17:54:25.112Z,44.00
2018-08-03T17:56:53.641Z,44.10
2018-08-03T17:59:22.163Z,44.20
2018-08-03T18:01:50.705Z,44.30
2018-08-03T18:04:19.234Z,44.30
2018-08-03T18:09:15.983Z,44.50
2018-08-03T18:11:44.532Z,44.60
2018-08-03T18:14:13.069Z,44.60
2018-08-03T18:16:41.645Z,44.70
2018-08-03T18:21:38.374Z,44.70
2018-08-03T18:24:07.019Z,44.80
2018-08-03T18:26:35.553Z,44.80
2018-08-03T18:29:04.203Z,44.90
2018-08-03T18:31:32.663Z,44.90
2018-08-03T18:34:01.221Z,45.00
2018-08-03T18:36:29.768Z,45.00
2018-08-03T18:38:58.274Z,45.10
2018-08-03T18:41:26.845Z,45.20
2018-08-03T18:43:55.353Z,45.20
2018-08-03T18:46:23.903Z,45.20
2018-08-03T18:48:52.441Z,45.20
2018-08-03T18:51:21.357Z,45.20
2018-08-03T18:53:49.861Z,45.30
2018-08-03T18:56:18.393Z,45.40
2018-08-03T18:58:46.939Z,45.40
2018-08-03T19:01:15.477Z,45.50
2018-08-03T19:03:44.013Z,45.50
2018-08-03T19:06:12.685Z,45.50
2018-08-03T19:08:41.529Z,45.90
2018-08-03T19:11:10.025Z,45.70
2018-08-03T19:13:38.622Z,45.90
2018-08-03T19:16:07.158Z,46.10
2018-08-03T19:18:35.724Z,46.20
2018-08-03T19:21:04.242Z,46.30
2018-08-03T19:23:32.794Z,46.50
2018-08-03T19:26:01.343Z,46.60
2018-08-03T19:28:29.879Z,46.90
2018-08-03T19:30:58.572Z,47.10
2018-08-03T19:33:27.114Z,47.20
2018-08-03T19:35:55.767Z,47.30
2018-08-03T19:38:24.306Z,47.50
2018-08-03T19:40:52.845Z,47.60
2018-08-03T19:43:21.537Z,47.70
2018-08-03T19:45:50.129Z,47.80
2018-08-03T19:48:18.687Z,47.90
2018-08-03T19:50:47.202Z,48.10
2018-08-03T19:53:15.730Z,48.10
2018-08-03T19:55:44.241Z,47.80
2018-08-03T19:58:12.915Z,48.30
2018-08-03T20:00:41.435Z,48.40
2018-08-03T20:03:10.090Z,48.40
2018-08-03T20:05:38.672Z,48.50
2018-08-03T20:08:07.219Z,48.60
2018-08-03T20:10:35.813Z,48.70
2018-08-03T20:13:04.410Z,48.80
2018-08-03T20:15:32.959Z,49.00
2018-08-03T20:18:01.493Z,49.10
2018-08-03T20:20:30.278Z,49.20
2018-08-03T20:22:58.822Z,49.30
2018-08-03T20:25:27.400Z,49.40
2018-08-03T20:27:55.961Z,49.60
2018-08-03T20:30:24.594Z,49.50
2018-08-03T20:32:53.140Z,49.60
2018-08-03T20:35:21.651Z,49.70
2018-08-03T20:37:50.221Z,49.70
2018-08-03T20:40:18.823Z,49.60
2018-08-03T20:45:15.665Z,49.70
2018-08-03T20:47:44.219Z,49.80
2018-08-03T20:50:12.748Z,49.80
2018-08-03T20:52:41.370Z,49.90
2018-08-03T20:55:09.885Z,49.90
2018-08-03T20:57:38.430Z,50.00
2018-08-03T21:00:07.234Z,50.10
2018-08-03T21:02:35.947Z,50.20
2018-08-03T21:05:04.576Z,50.70
2018-08-03T21:07:33.214Z,50.20
2018-08-03T21:10:01.886Z,50.40
2018-08-03T21:12:30.497Z,50.40
2018-08-03T21:14:59.035Z,50.60
2018-08-03T21:17:27.575Z,50.60
2018-08-03T21:19:56.100Z,50.70
2018-08-03T21:22:24.612Z,50.80
2018-08-03T21:24:53.446Z,50.80
2018-08-03T21:27:21.976Z,50.80
2018-08-03T21:29:50.527Z,50.80
2018-08-03T21:32:19.129Z,50.90
2018-08-03T21:34:47.720Z,51.00
2018-08-03T21:37:16.236Z,51.10
2018-08-03T21:39:44.773Z,51.10
2018-08-03T21:42:13.289Z,51.10
2018-08-03T21:44:42.173Z,51.20
2018-08-03T21:47:10.698Z,51.20
2018-08-03T21:52:07.519Z,51.50
2018-08-03T21:54:36.071Z,51.30
2018-08-03T21:57:04.663Z,51.30
2018-08-03T21:59:33.330Z,51.40
2018-08-03T22:02:01.972Z,51.40
2018-08-03T22:04:30.467Z,51.50
2018-08-03T22:06:59.109Z,51.40
2018-08-03T22:09:27.649Z,51.40
2018-08-03T22:11:56.208Z,51.50
2018-08-03T22:14:24.900Z,51.60
2018-08-03T22:16:53.549Z,51.60
2018-08-03T22:19:22.081Z,51.70
2018-08-03T22:21:50.635Z,51.80
2018-08-03T22:24:19.225Z,51.90
2018-08-03T22:26:47.684Z,52.00
2018-08-03T22:29:16.225Z,51.90
2018-08-03T22:31:44.851Z,52.00
2018-08-03T22:34:13.405Z,52.10
2018-08-03T22:36:41.940Z,52.10
2018-08-03T22:39:10.474Z,52.10
2018-08-03T22:41:39.301Z,52.20
2018-08-03T22:44:07.935Z,52.10
2018-08-03T22:46:36.493Z,52.20
2018-08-03T22:49:05.037Z,52.10
2018-08-03T22:51:33.544Z,52.10
2018-08-03T22:54:02.058Z,52.20
2018-08-03T22:56:30.600Z,52.20
2018-08-03T22:58:59.137Z,52.20
2018-08-03T23:03:55.936Z,52.30
2018-08-03T23:06:24.536Z,52.30
2018-08-03T23:08:53.054Z,52.40
2018-08-03T23:13:49.781Z,52.40
2018-08-03T23:16:18.334Z,52.50
2018-08-03T23:18:46.883Z,52.40
2018-08-03T23:21:15.530Z,52.40
2018-08-03T23:23:44.071Z,52.60
2018-08-03T23:26:12.642Z,52.50
2018-08-03T23:28:41.164Z,52.50
2018-08-03T23:31:09.706Z,52.60
2018-08-03T23:36:06.617Z,52.60
2018-08-03T23:38:35.140Z,52.60
2018-08-03T23:41:03.700Z,52.70
2018-08-03T23:43:32.218Z,52.70
2018-08-03T23:46:00.834Z,52.70
2018-08-03T23:48:29.439Z,52.90
2018-08-03T23:50:58.006Z,52.90
2018-08-03T23:53:26.618Z,52.90
2018-08-03T23:55:55.151Z,52.90
2018-08-03T23:58:23.729Z,52.90
